sensor_id;sensor_type;location;lat;lon;timestamp;P1;durP1;ratioP1;P2;durP2;ratioP2
20972;SDS011;10645;52.370;13.314;2023-05-07T00:00:59;3.17;;;2.90;;
20972;SDS011;10645;52.370;13.314;2023-05-07T00:03:25;5.38;;;4.35;;
20972;SDS011;10645;52.370;13.314;2023-05-07T00:05:51;6.47;;;5.20;;
20972;SDS011;10645;52.370;13.314;2023-05-07T00:08:18;4.65;;;3.88;;
20972;SDS011;10645;52.370;13.314;2023-05-07T00:10:45;3.38;;;3.10;;
20972;SDS011;10645;52.370;13.314;2023-05-07T00:13:12;3.15;;;2.95;;
20972;SDS011;10645;52.370;13.314;2023-05-07T00:15:38;5.43;;;3.80;;
20972;SDS011;10645;52.370;13.314;2023-05-07T00:18:04;3.38;;;3.10;;
20972;SDS011;10645;52.370;13.314;2023-05-07T00:20:30;6.22;;;3.58;;
20972;SDS011;10645;52.370;13.314;2023-05-07T00:22:56;7.63;;;3.60;;
20972;SDS011;10645;52.370;13.314;2023-05-07T00:25:22;6.22;;;4.35;;
20972;SDS011;10645;52.370;13.314;2023-05-07T00:27:49;4.65;;;4.25;;
20972;SDS011;10645;52.370;13.314;2023-05-07T00:30:15;7.30;;;3.95;;
20972;SDS011;10645;52.370;13.314;2023-05-07T00:32:41;4.72;;;3.72;;
20972;SDS011;10645;52.370;13.314;2023-05-07T00:35:07;5.38;;;4.82;;
20972;SDS011;10645;52.370;13.314;2023-05-07T00:37:34;6.22;;;5.53;;
20972;SDS011;10645;52.370;13.314;2023-05-07T00:40:00;7.57;;;3.35;;
20972;SDS011;10645;52.370;13.314;2023-05-07T00:42:28;4.03;;;3.65;;
20972;SDS011;10645;52.370;13.314;2023-05-07T00:44:54;4.00;;;3.67;;
20972;SDS011;10645;52.370;13.314;2023-05-07T00:47:20;3.55;;;3.13;;
20972;SDS011;10645;52.370;13.314;2023-05-07T00:49:46;2.80;;;2.60;;
20972;SDS011;10645;52.370;13.314;2023-05-07T00:52:14;4.03;;;3.63;;
20972;SDS011;10645;52.370;13.314;2023-05-07T00:54:41;2.90;;;2.80;;
20972;SDS011;10645;52.370;13.314;2023-05-07T00:57:08;4.35;;;3.97;;
20972;SDS011;10645;52.370;13.314;2023-05-07T00:59:37;5.00;;;3.42;;
20972;SDS011;10645;52.370;13.314;2023-05-07T01:02:03;6.05;;;3.88;;
20972;SDS011;10645;52.370;13.314;2023-05-07T01:04:29;4.18;;;3.80;;
20972;SDS011;10645;52.370;13.314;2023-05-07T01:06:56;5.47;;;3.33;;
20972;SDS011;10645;52.370;13.314;2023-05-07T01:09:24;2.83;;;2.63;;
20972;SDS011;10645;52.370;13.314;2023-05-07T01:11:51;4.13;;;3.70;;
20972;SDS011;10645;52.370;13.314;2023-05-07T01:14:18;4.43;;;4.03;;
20972;SDS011;10645;52.370;13.314;2023-05-07T01:16:46;3.53;;;3.33;;
20972;SDS011;10645;52.370;13.314;2023-05-07T01:19:13;4.53;;;3.22;;
20972;SDS011;10645;52.370;13.314;2023-05-07T01:21:44;6.82;;;3.20;;
20972;SDS011;10645;52.370;13.314;2023-05-07T01:24:13;4.03;;;3.47;;
20972;SDS011;10645;52.370;13.314;2023-05-07T01:26:40;5.88;;;4.32;;
20972;SDS011;10645;52.370;13.314;2023-05-07T01:29:07;4.18;;;3.30;;
20972;SDS011;10645;52.370;13.314;2023-05-07T01:31:34;10.07;;;3.03;;
20972;SDS011;10645;52.370;13.314;2023-05-07T01:34:01;6.13;;;3.63;;
20972;SDS011;10645;52.370;13.314;2023-05-07T01:36:29;3.70;;;3.42;;
20972;SDS011;10645;52.370;13.314;2023-05-07T01:38:56;2.92;;;2.58;;
20972;SDS011;10645;52.370;13.314;2023-05-07T01:41:24;3.60;;;2.28;;
20972;SDS011;10645;52.370;13.314;2023-05-07T01:43:51;3.15;;;2.90;;
20972;SDS011;10645;52.370;13.314;2023-05-07T01:46:18;2.58;;;2.35;;
20972;SDS011;10645;52.370;13.314;2023-05-07T01:48:45;4.32;;;4.03;;
20972;SDS011;10645;52.370;13.314;2023-05-07T01:51:12;3.30;;;3.00;;
20972;SDS011;10645;52.370;13.314;2023-05-07T01:53:38;3.42;;;3.13;;
20972;SDS011;10645;52.370;13.314;2023-05-07T01:56:06;19.05;;;3.92;;
20972;SDS011;10645;52.370;13.314;2023-05-07T01:58:34;3.70;;;2.33;;
20972;SDS011;10645;52.370;13.314;2023-05-07T02:01:01;4.18;;;3.63;;
20972;SDS011;10645;52.370;13.314;2023-05-07T02:03:27;5.47;;;4.05;;
20972;SDS011;10645;52.370;13.314;2023-05-07T02:06:02;7.07;;;3.33;;
20972;SDS011;10645;52.370;13.314;2023-05-07T02:08:32;3.03;;;2.83;;
20972;SDS011;10645;52.370;13.314;2023-05-07T02:10:59;2.65;;;2.45;;
20972;SDS011;10645;52.370;13.314;2023-05-07T02:13:29;5.97;;;3.30;;
20972;SDS011;10645;52.370;13.314;2023-05-07T02:15:57;4.47;;;4.10;;
20972;SDS011;10645;52.370;13.314;2023-05-07T02:18:24;3.55;;;3.25;;
20972;SDS011;10645;52.370;13.314;2023-05-07T02:20:50;3.92;;;2.80;;
20972;SDS011;10645;52.370;13.314;2023-05-07T02:23:16;4.72;;;3.28;;
20972;SDS011;10645;52.370;13.314;2023-05-07T02:25:43;2.88;;;2.70;;
20972;SDS011;10645;52.370;13.314;2023-05-07T02:28:09;5.60;;;3.28;;
20972;SDS011;10645;52.370;13.314;2023-05-07T02:30:48;4.90;;;2.47;;
20972;SDS011;10645;52.370;13.314;2023-05-07T02:33:14;2.72;;;2.53;;
20972;SDS011;10645;52.370;13.314;2023-05-07T02:35:40;3.13;;;2.78;;
20972;SDS011;10645;52.370;13.314;2023-05-07T02:38:06;4.22;;;3.70;;
20972;SDS011;10645;52.370;13.314;2023-05-07T02:40:33;1.50;;;1.27;;
20972;SDS011;10645;52.370;13.314;2023-05-07T02:43:04;3.60;;;2.58;;
20972;SDS011;10645;52.370;13.314;2023-05-07T02:45:31;2.90;;;2.70;;
20972;SDS011;10645;52.370;13.314;2023-05-07T02:48:03;4.90;;;4.50;;
20972;SDS011;10645;52.370;13.314;2023-05-07T02:50:29;4.88;;;3.92;;
20972;SDS011;10645;52.370;13.314;2023-05-07T02:52:55;3.25;;;2.95;;
20972;SDS011;10645;52.370;13.314;2023-05-07T02:55:21;4.18;;;2.83;;
20972;SDS011;10645;52.370;13.314;2023-05-07T02:57:47;3.28;;;2.83;;
20972;SDS011;10645;52.370;13.314;2023-05-07T03:00:14;5.13;;;4.63;;
20972;SDS011;10645;52.370;13.314;2023-05-07T03:02:49;3.35;;;3.05;;
20972;SDS011;10645;52.370;13.314;2023-05-07T03:05:15;5.50;;;4.20;;
20972;SDS011;10645;52.370;13.314;2023-05-07T03:07:41;4.97;;;4.55;;
20972;SDS011;10645;52.370;13.314;2023-05-07T03:10:11;3.38;;;3.17;;
20972;SDS011;10645;52.370;13.314;2023-05-07T03:12:37;5.47;;;3.25;;
20972;SDS011;10645;52.370;13.314;2023-05-07T03:15:03;6.90;;;2.38;;
20972;SDS011;10645;52.370;13.314;2023-05-07T03:17:29;3.00;;;2.65;;
20972;SDS011;10645;52.370;13.314;2023-05-07T03:19:56;4.28;;;3.90;;
20972;SDS011;10645;52.370;13.314;2023-05-07T03:22:22;3.50;;;3.20;;
20972;SDS011;10645;52.370;13.314;2023-05-07T03:24:48;3.90;;;2.92;;
20972;SDS011;10645;52.370;13.314;2023-05-07T03:27:14;3.35;;;2.58;;
20972;SDS011;10645;52.370;13.314;2023-05-07T03:29:40;2.33;;;1.98;;
20972;SDS011;10645;52.370;13.314;2023-05-07T03:32:06;23.45;;;5.43;;
20972;SDS011;10645;52.370;13.314;2023-05-07T03:34:33;2.53;;;2.33;;
20972;SDS011;10645;52.370;13.314;2023-05-07T03:36:59;7.55;;;3.08;;
20972;SDS011;10645;52.370;13.314;2023-05-07T03:39:25;3.70;;;3.35;;
20972;SDS011;10645;52.370;13.314;2023-05-07T03:41:51;4.47;;;2.97;;
20972;SDS011;10645;52.370;13.314;2023-05-07T03:44:18;6.13;;;3.20;;
20972;SDS011;10645;52.370;13.314;2023-05-07T03:46:44;4.35;;;3.95;;
20972;SDS011;10645;52.370;13.314;2023-05-07T03:49:11;4.65;;;3.70;;
20972;SDS011;10645;52.370;13.314;2023-05-07T03:51:37;4.78;;;4.00;;
20972;SDS011;10645;52.370;13.314;2023-05-07T03:54:04;3.80;;;3.50;;
20972;SDS011;10645;52.370;13.314;2023-05-07T03:56:32;5.10;;;3.38;;
20972;SDS011;10645;52.370;13.314;2023-05-07T03:58:59;4.40;;;4.07;;
20972;SDS011;10645;52.370;13.314;2023-05-07T04:01:25;6.05;;;4.35;;
20972;SDS011;10645;52.370;13.314;2023-05-07T04:03:52;4.07;;;3.75;;
20972;SDS011;10645;52.370;13.314;2023-05-07T04:06:18;5.25;;;3.58;;
20972;SDS011;10645;52.370;13.314;2023-05-07T04:08:46;5.15;;;4.68;;
20972;SDS011;10645;52.370;13.314;2023-05-07T04:11:13;8.48;;;3.30;;
20972;SDS011;10645;52.370;13.314;2023-05-07T04:13:39;4.63;;;3.13;;
20972;SDS011;10645;52.370;13.314;2023-05-07T04:16:07;4.95;;;3.28;;
20972;SDS011;10645;52.370;13.314;2023-05-07T04:18:35;11.30;;;4.63;;
20972;SDS011;10645;52.370;13.314;2023-05-07T04:21:01;4.22;;;3.83;;
20972;SDS011;10645;52.370;13.314;2023-05-07T04:23:27;3.03;;;2.75;;
20972;SDS011;10645;52.370;13.314;2023-05-07T04:25:55;3.15;;;2.85;;
20972;SDS011;10645;52.370;13.314;2023-05-07T04:28:31;3.33;;;3.03;;
20972;SDS011;10645;52.370;13.314;2023-05-07T04:30:57;3.83;;;3.50;;
20972;SDS011;10645;52.370;13.314;2023-05-07T04:33:23;3.08;;;2.78;;
20972;SDS011;10645;52.370;13.314;2023-05-07T04:35:50;4.35;;;3.88;;
20972;SDS011;10645;52.370;13.314;2023-05-07T04:38:16;5.93;;;2.80;;
20972;SDS011;10645;52.370;13.314;2023-05-07T04:40:44;4.68;;;2.72;;
20972;SDS011;10645;52.370;13.314;2023-05-07T04:43:14;2.33;;;2.13;;
20972;SDS011;10645;52.370;13.314;2023-05-07T04:45:46;2.53;;;2.42;;
20972;SDS011;10645;52.370;13.314;2023-05-07T04:48:12;2.42;;;2.30;;
20972;SDS011;10645;52.370;13.314;2023-05-07T04:50:40;3.20;;;2.95;;
20972;SDS011;10645;52.370;13.314;2023-05-07T04:53:07;3.17;;;2.92;;
20972;SDS011;10645;52.370;13.314;2023-05-07T04:55:33;4.03;;;2.17;;
20972;SDS011;10645;52.370;13.314;2023-05-07T04:57:59;4.10;;;3.35;;
20972;SDS011;10645;52.370;13.314;2023-05-07T05:00:27;1.88;;;1.75;;
20972;SDS011;10645;52.370;13.314;2023-05-07T05:02:54;5.10;;;3.25;;
20972;SDS011;10645;52.370;13.314;2023-05-07T05:05:21;4.72;;;2.70;;
20972;SDS011;10645;52.370;13.314;2023-05-07T05:07:51;1.52;;;1.42;;
20972;SDS011;10645;52.370;13.314;2023-05-07T05:10:17;4.32;;;3.95;;
20972;SDS011;10645;52.370;13.314;2023-05-07T05:12:44;4.40;;;3.92;;
20972;SDS011;10645;52.370;13.314;2023-05-07T05:15:13;3.58;;;2.13;;
20972;SDS011;10645;52.370;13.314;2023-05-07T05:17:39;1.83;;;1.73;;
20972;SDS011;10645;52.370;13.314;2023-05-07T05:20:06;3.58;;;3.30;;
20972;SDS011;10645;52.370;13.314;2023-05-07T05:22:33;3.33;;;2.67;;
20972;SDS011;10645;52.370;13.314;2023-05-07T05:25:01;3.08;;;2.75;;
20972;SDS011;10645;52.370;13.314;2023-05-07T05:27:27;5.63;;;3.42;;
20972;SDS011;10645;52.370;13.314;2023-05-07T05:29:54;2.72;;;2.53;;
20972;SDS011;10645;52.370;13.314;2023-05-07T05:32:21;3.60;;;3.30;;
20972;SDS011;10645;52.370;13.314;2023-05-07T05:34:48;3.17;;;2.70;;
20972;SDS011;10645;52.370;13.314;2023-05-07T05:37:14;4.07;;;3.00;;
20972;SDS011;10645;52.370;13.314;2023-05-07T05:39:40;3.58;;;2.63;;
20972;SDS011;10645;52.370;13.314;2023-05-07T05:42:09;2.47;;;2.17;;
20972;SDS011;10645;52.370;13.314;2023-05-07T05:44:35;3.55;;;2.30;;
20972;SDS011;10645;52.370;13.314;2023-05-07T05:47:02;3.35;;;3.15;;
20972;SDS011;10645;52.370;13.314;2023-05-07T05:49:29;3.00;;;2.60;;
20972;SDS011;10645;52.370;13.314;2023-05-07T05:51:55;18.52;;;11.45;;
20972;SDS011;10645;52.370;13.314;2023-05-07T05:54:24;26.73;;;21.20;;
20972;SDS011;10645;52.370;13.314;2023-05-07T05:56:51;7.30;;;5.75;;
20972;SDS011;10645;52.370;13.314;2023-05-07T05:59:17;3.30;;;2.03;;
20972;SDS011;10645;52.370;13.314;2023-05-07T06:01:44;13.10;;;11.48;;
20972;SDS011;10645;52.370;13.314;2023-05-07T06:04:10;20.63;;;14.75;;
20972;SDS011;10645;52.370;13.314;2023-05-07T06:06:37;12.60;;;8.93;;
20972;SDS011;10645;52.370;13.314;2023-05-07T06:09:03;8.18;;;4.18;;
20972;SDS011;10645;52.370;13.314;2023-05-07T06:11:35;15.55;;;12.25;;
20972;SDS011;10645;52.370;13.314;2023-05-07T06:14:02;20.45;;;11.65;;
20972;SDS011;10645;52.370;13.314;2023-05-07T06:16:29;19.85;;;13.88;;
20972;SDS011;10645;52.370;13.314;2023-05-07T06:18:56;5.05;;;4.38;;
20972;SDS011;10645;52.370;13.314;2023-05-07T06:21:23;4.43;;;3.95;;
20972;SDS011;10645;52.370;13.314;2023-05-07T06:23:49;3.47;;;3.17;;
20972;SDS011;10645;52.370;13.314;2023-05-07T06:26:17;2.58;;;2.38;;
20972;SDS011;10645;52.370;13.314;2023-05-07T06:28:46;3.08;;;2.42;;
20972;SDS011;10645;52.370;13.314;2023-05-07T06:31:22;1.45;;;1.35;;
20972;SDS011;10645;52.370;13.314;2023-05-07T06:34:00;2.25;;;2.05;;
20972;SDS011;10645;52.370;13.314;2023-05-07T06:36:32;1.40;;;1.30;;
20972;SDS011;10645;52.370;13.314;2023-05-07T06:39:04;1.90;;;1.80;;
20972;SDS011;10645;52.370;13.314;2023-05-07T06:41:30;2.33;;;1.52;;
20972;SDS011;10645;52.370;13.314;2023-05-07T06:44:01;2.10;;;1.85;;
20972;SDS011;10645;52.370;13.314;2023-05-07T06:46:42;0.90;;;0.90;;
20972;SDS011;10645;52.370;13.314;2023-05-07T06:49:09;2.10;;;2.00;;
20972;SDS011;10645;52.370;13.314;2023-05-07T06:51:35;6.32;;;1.77;;
20972;SDS011;10645;52.370;13.314;2023-05-07T06:54:02;1.80;;;1.70;;
20972;SDS011;10645;52.370;13.314;2023-05-07T06:56:30;2.45;;;2.25;;
20972;SDS011;10645;52.370;13.314;2023-05-07T06:58:57;2.75;;;2.45;;
20972;SDS011;10645;52.370;13.314;2023-05-07T07:01:23;2.47;;;2.22;;
20972;SDS011;10645;52.370;13.314;2023-05-07T07:03:49;2.35;;;2.15;;
20972;SDS011;10645;52.370;13.314;2023-05-07T07:06:17;1.95;;;1.85;;
20972;SDS011;10645;52.370;13.314;2023-05-07T07:08:43;2.67;;;2.47;;
20972;SDS011;10645;52.370;13.314;2023-05-07T07:11:13;2.35;;;1.63;;
20972;SDS011;10645;52.370;13.314;2023-05-07T07:13:39;3.15;;;2.85;;
20972;SDS011;10645;52.370;13.314;2023-05-07T07:16:05;4.18;;;2.83;;
20972;SDS011;10645;52.370;13.314;2023-05-07T07:18:32;2.08;;;1.88;;
20972;SDS011;10645;52.370;13.314;2023-05-07T07:20:58;2.55;;;2.35;;
20972;SDS011;10645;52.370;13.314;2023-05-07T07:23:25;1.65;;;1.55;;
20972;SDS011;10645;52.370;13.314;2023-05-07T07:25:51;1.88;;;1.75;;
20972;SDS011;10645;52.370;13.314;2023-05-07T07:28:17;4.10;;;2.20;;
20972;SDS011;10645;52.370;13.314;2023-05-07T07:30:46;1.98;;;1.88;;
20972;SDS011;10645;52.370;13.314;2023-05-07T07:33:12;2.25;;;2.15;;
20972;SDS011;10645;52.370;13.314;2023-05-07T07:35:38;1.75;;;1.65;;
20972;SDS011;10645;52.370;13.314;2023-05-07T07:38:05;2.70;;;1.95;;
20972;SDS011;10645;52.370;13.314;2023-05-07T07:40:31;1.80;;;1.38;;
20972;SDS011;10645;52.370;13.314;2023-05-07T07:42:59;1.52;;;1.40;;
20972;SDS011;10645;52.370;13.314;2023-05-07T07:45:27;1.58;;;1.48;;
20972;SDS011;10645;52.370;13.314;2023-05-07T07:47:53;1.85;;;1.75;;
20972;SDS011;10645;52.370;13.314;2023-05-07T07:50:19;4.28;;;3.28;;
20972;SDS011;10645;52.370;13.314;2023-05-07T07:52:45;3.25;;;2.42;;
20972;SDS011;10645;52.370;13.314;2023-05-07T07:55:14;1.50;;;1.40;;
20972;SDS011;10645;52.370;13.314;2023-05-07T07:57:46;7.90;;;3.45;;
20972;SDS011;10645;52.370;13.314;2023-05-07T08:00:12;2.92;;;1.60;;
20972;SDS011;10645;52.370;13.314;2023-05-07T08:02:50;1.70;;;1.58;;
20972;SDS011;10645;52.370;13.314;2023-05-07T08:05:22;1.58;;;1.48;;
20972;SDS011;10645;52.370;13.314;2023-05-07T08:07:49;2.20;;;2.10;;
20972;SDS011;10645;52.370;13.314;2023-05-07T08:10:22;1.35;;;1.20;;
20972;SDS011;10645;52.370;13.314;2023-05-07T08:12:53;3.40;;;2.63;;
20972;SDS011;10645;52.370;13.314;2023-05-07T08:15:19;4.45;;;1.70;;
20972;SDS011;10645;52.370;13.314;2023-05-07T08:17:45;2.10;;;1.90;;
20972;SDS011;10645;52.370;13.314;2023-05-07T08:20:12;2.00;;;1.90;;
20972;SDS011;10645;52.370;13.314;2023-05-07T08:22:39;1.27;;;1.17;;
20972;SDS011;10645;52.370;13.314;2023-05-07T08:25:06;1.55;;;1.40;;
20972;SDS011;10645;52.370;13.314;2023-05-07T08:27:32;2.15;;;2.05;;
20972;SDS011;10645;52.370;13.314;2023-05-07T08:29:58;1.30;;;1.00;;
20972;SDS011;10645;52.370;13.314;2023-05-07T08:32:25;1.50;;;1.40;;
20972;SDS011;10645;52.370;13.314;2023-05-07T08:34:51;1.70;;;1.58;;
20972;SDS011;10645;52.370;13.314;2023-05-07T08:37:17;4.45;;;2.22;;
20972;SDS011;10645;52.370;13.314;2023-05-07T08:39:44;0.60;;;0.60;;
20972;SDS011;10645;52.370;13.314;2023-05-07T08:42:17;2.08;;;1.25;;
20972;SDS011;10645;52.370;13.314;2023-05-07T08:44:46;2.05;;;1.95;;
20972;SDS011;10645;52.370;13.314;2023-05-07T08:47:14;1.10;;;0.75;;
20972;SDS011;10645;52.370;13.314;2023-05-07T08:49:40;2.50;;;1.45;;
20972;SDS011;10645;52.370;13.314;2023-05-07T08:52:07;2.67;;;1.75;;
20972;SDS011;10645;52.370;13.314;2023-05-07T08:54:34;1.00;;;0.95;;
20972;SDS011;10645;52.370;13.314;2023-05-07T08:57:04;3.45;;;1.77;;
20972;SDS011;10645;52.370;13.314;2023-05-07T08:59:32;1.38;;;1.23;;
20972;SDS011;10645;52.370;13.314;2023-05-07T09:01:59;1.17;;;1.17;;
20972;SDS011;10645;52.370;13.314;2023-05-07T09:04:25;2.45;;;1.75;;
20972;SDS011;10645;52.370;13.314;2023-05-07T09:06:52;1.70;;;1.60;;
20972;SDS011;10645;52.370;13.314;2023-05-07T09:09:21;2.42;;;1.80;;
20972;SDS011;10645;52.370;13.314;2023-05-07T09:11:52;1.02;;;1.02;;
20972;SDS011;10645;52.370;13.314;2023-05-07T09:14:25;1.67;;;1.58;;
20972;SDS011;10645;52.370;13.314;2023-05-07T09:16:54;1.88;;;1.25;;
20972;SDS011;10645;52.370;13.314;2023-05-07T09:19:24;1.00;;;0.88;;
20972;SDS011;10645;52.370;13.314;2023-05-07T09:22:00;1.35;;;0.77;;
20972;SDS011;10645;52.370;13.314;2023-05-07T09:24:31;0.93;;;0.90;;
20972;SDS011;10645;52.370;13.314;2023-05-07T09:27:01;3.42;;;1.25;;
20972;SDS011;10645;52.370;13.314;2023-05-07T09:29:29;1.17;;;1.02;;
20972;SDS011;10645;52.370;13.314;2023-05-07T09:31:55;0.52;;;0.52;;
20972;SDS011;10645;52.370;13.314;2023-05-07T09:34:22;1.00;;;0.93;;
20972;SDS011;10645;52.370;13.314;2023-05-07T09:36:48;1.33;;;1.23;;
20972;SDS011;10645;52.370;13.314;2023-05-07T09:39:15;0.75;;;0.70;;
20972;SDS011;10645;52.370;13.314;2023-05-07T09:41:45;0.65;;;0.65;;
20972;SDS011;10645;52.370;13.314;2023-05-07T09:44:18;1.23;;;1.13;;
20972;SDS011;10645;52.370;13.314;2023-05-07T09:46:51;0.90;;;0.90;;
20972;SDS011;10645;52.370;13.314;2023-05-07T09:49:24;2.22;;;1.25;;
20972;SDS011;10645;52.370;13.314;2023-05-07T09:52:00;0.60;;;0.60;;
20972;SDS011;10645;52.370;13.314;2023-05-07T09:54:30;0.93;;;0.77;;
20972;SDS011;10645;52.370;13.314;2023-05-07T09:56:57;0.35;;;0.35;;
20972;SDS011;10645;52.370;13.314;2023-05-07T09:59:26;0.80;;;0.77;;
20972;SDS011;10645;52.370;13.314;2023-05-07T10:01:55;0.90;;;0.90;;
20972;SDS011;10645;52.370;13.314;2023-05-07T10:04:24;0.77;;;0.77;;
20972;SDS011;10645;52.370;13.314;2023-05-07T10:06:52;0.80;;;0.80;;
20972;SDS011;10645;52.370;13.314;2023-05-07T10:09:20;0.82;;;0.82;;
20972;SDS011;10645;52.370;13.314;2023-05-07T10:11:48;0.68;;;0.68;;
20972;SDS011;10645;52.370;13.314;2023-05-07T10:14:15;0.63;;;0.60;;
20972;SDS011;10645;52.370;13.314;2023-05-07T10:16:43;1.00;;;1.00;;
20972;SDS011;10645;52.370;13.314;2023-05-07T10:19:14;0.30;;;0.30;;
20972;SDS011;10645;52.370;13.314;2023-05-07T10:22:05;1.52;;;1.05;;
20972;SDS011;10645;52.370;13.314;2023-05-07T10:24:33;1.15;;;1.15;;
20972;SDS011;10645;52.370;13.314;2023-05-07T10:27:10;0.77;;;0.70;;
20972;SDS011;10645;52.370;13.314;2023-05-07T10:32:47;0.65;;;0.65;;
20972;SDS011;10645;52.370;13.314;2023-05-07T10:35:29;1.25;;;1.15;;
20972;SDS011;10645;52.370;13.314;2023-05-07T10:37:59;1.30;;;1.08;;
20972;SDS011;10645;52.370;13.314;2023-05-07T10:40:29;1.42;;;1.33;;
20972;SDS011;10645;52.370;13.314;2023-05-07T10:43:00;0.80;;;0.80;;
20972;SDS011;10645;52.370;13.314;2023-05-07T10:45:32;1.67;;;1.50;;
20972;SDS011;10645;52.370;13.314;2023-05-07T10:50:38;0.85;;;0.60;;
20972;SDS011;10645;52.370;13.314;2023-05-07T10:58:49;0.80;;;0.80;;
20972;SDS011;10645;52.370;13.314;2023-05-07T11:04:16;0.63;;;0.63;;
20972;SDS011;10645;52.370;13.314;2023-05-07T11:15:11;0.80;;;0.80;;
20972;SDS011;10645;52.370;13.314;2023-05-07T11:17:52;1.55;;;1.15;;
20972;SDS011;10645;52.370;13.314;2023-05-07T11:26:30;0.73;;;0.73;;
20972;SDS011;10645;52.370;13.314;2023-05-07T11:29:14;0.80;;;0.55;;
20972;SDS011;10645;52.370;13.314;2023-05-07T11:31:49;0.80;;;0.80;;
20972;SDS011;10645;52.370;13.314;2023-05-07T11:34:25;1.48;;;1.38;;
20972;SDS011;10645;52.370;13.314;2023-05-07T11:36:53;0.70;;;0.70;;
20972;SDS011;10645;52.370;13.314;2023-05-07T11:39:30;0.77;;;0.77;;
20972;SDS011;10645;52.370;13.314;2023-05-07T11:41:59;1.02;;;1.02;;
20972;SDS011;10645;52.370;13.314;2023-05-07T11:44:39;1.00;;;0.70;;
20972;SDS011;10645;52.370;13.314;2023-05-07T11:47:09;1.13;;;1.13;;
20972;SDS011;10645;52.370;13.314;2023-05-07T11:49:36;0.77;;;0.77;;
20972;SDS011;10645;52.370;13.314;2023-05-07T11:52:02;1.52;;;1.38;;
20972;SDS011;10645;52.370;13.314;2023-05-07T11:54:34;0.95;;;0.95;;
20972;SDS011;10645;52.370;13.314;2023-05-07T11:57:02;0.88;;;0.88;;
20972;SDS011;10645;52.370;13.314;2023-05-07T11:59:28;0.73;;;0.73;;
20972;SDS011;10645;52.370;13.314;2023-05-07T12:01:57;2.83;;;1.95;;
20972;SDS011;10645;52.370;13.314;2023-05-07T12:04:24;0.65;;;0.65;;
20972;SDS011;10645;52.370;13.314;2023-05-07T12:06:53;1.02;;;0.90;;
20972;SDS011;10645;52.370;13.314;2023-05-07T12:09:21;0.80;;;0.80;;
20972;SDS011;10645;52.370;13.314;2023-05-07T12:11:47;0.60;;;0.60;;
20972;SDS011;10645;52.370;13.314;2023-05-07T12:14:13;0.52;;;0.52;;
20972;SDS011;10645;52.370;13.314;2023-05-07T12:16:41;0.60;;;0.60;;
20972;SDS011;10645;52.370;13.314;2023-05-07T12:19:08;1.95;;;1.08;;
20972;SDS011;10645;52.370;13.314;2023-05-07T12:21:38;1.38;;;1.27;;
20972;SDS011;10645;52.370;13.314;2023-05-07T12:24:05;1.45;;;1.35;;
20972;SDS011;10645;52.370;13.314;2023-05-07T12:26:31;0.95;;;0.95;;
20972;SDS011;10645;52.370;13.314;2023-05-07T12:28:57;1.27;;;1.23;;
20972;SDS011;10645;52.370;13.314;2023-05-07T12:31:25;1.83;;;1.73;;
20972;SDS011;10645;52.370;13.314;2023-05-07T12:33:51;0.68;;;0.68;;
20972;SDS011;10645;52.370;13.314;2023-05-07T12:36:18;1.00;;;1.00;;
20972;SDS011;10645;52.370;13.314;2023-05-07T12:38:44;1.00;;;1.00;;
20972;SDS011;10645;52.370;13.314;2023-05-07T12:41:10;1.27;;;1.17;;
20972;SDS011;10645;52.370;13.314;2023-05-07T12:43:37;1.23;;;1.13;;
20972;SDS011;10645;52.370;13.314;2023-05-07T12:46:04;1.42;;;1.17;;
20972;SDS011;10645;52.370;13.314;2023-05-07T12:48:32;2.95;;;1.30;;
20972;SDS011;10645;52.370;13.314;2023-05-07T12:51:00;1.40;;;1.30;;
20972;SDS011;10645;52.370;13.314;2023-05-07T12:53:27;2.28;;;0.93;;
20972;SDS011;10645;52.370;13.314;2023-05-07T12:55:55;1.13;;;1.10;;
20972;SDS011;10645;52.370;13.314;2023-05-07T12:58:29;0.90;;;0.90;;
20972;SDS011;10645;52.370;13.314;2023-05-07T13:00:59;0.90;;;0.90;;
20972;SDS011;10645;52.370;13.314;2023-05-07T13:03:33;1.52;;;1.27;;
20972;SDS011;10645;52.370;13.314;2023-05-07T13:06:02;0.90;;;0.90;;
20972;SDS011;10645;52.370;13.314;2023-05-07T13:08:31;1.35;;;1.33;;
20972;SDS011;10645;52.370;13.314;2023-05-07T13:10:59;0.60;;;0.60;;
20972;SDS011;10645;52.370;13.314;2023-05-07T13:13:30;1.00;;;1.00;;
20972;SDS011;10645;52.370;13.314;2023-05-07T13:15:56;1.98;;;0.93;;
20972;SDS011;10645;52.370;13.314;2023-05-07T13:18:24;1.45;;;1.35;;
20972;SDS011;10645;52.370;13.314;2023-05-07T13:20:51;1.17;;;1.15;;
20972;SDS011;10645;52.370;13.314;2023-05-07T13:23:18;2.08;;;0.85;;
20972;SDS011;10645;52.370;13.314;2023-05-07T13:25:44;0.82;;;0.82;;
20972;SDS011;10645;52.370;13.314;2023-05-07T13:28:10;0.80;;;0.80;;
20972;SDS011;10645;52.370;13.314;2023-05-07T13:30:36;1.13;;;1.00;;
20972;SDS011;10645;52.370;13.314;2023-05-07T13:33:02;1.00;;;1.00;;
20972;SDS011;10645;52.370;13.314;2023-05-07T13:35:29;0.55;;;0.55;;
20972;SDS011;10645;52.370;13.314;2023-05-07T13:37:55;1.00;;;1.00;;
20972;SDS011;10645;52.370;13.314;2023-05-07T13:40:21;0.85;;;0.85;;
20972;SDS011;10645;52.370;13.314;2023-05-07T13:42:49;1.25;;;1.17;;
20972;SDS011;10645;52.370;13.314;2023-05-07T13:45:17;2.35;;;1.63;;
20972;SDS011;10645;52.370;13.314;2023-05-07T13:47:44;1.38;;;1.10;;
20972;SDS011;10645;52.370;13.314;2023-05-07T13:50:11;2.67;;;1.85;;
20972;SDS011;10645;52.370;13.314;2023-05-07T13:52:41;1.02;;;0.98;;
20972;SDS011;10645;52.370;13.314;2023-05-07T13:55:11;0.73;;;0.73;;
20972;SDS011;10645;52.370;13.314;2023-05-07T13:57:38;0.95;;;0.95;;
20972;SDS011;10645;52.370;13.314;2023-05-07T14:00:04;1.08;;;0.85;;
20972;SDS011;10645;52.370;13.314;2023-05-07T14:02:40;0.75;;;0.70;;
20972;SDS011;10645;52.370;13.314;2023-05-07T14:05:07;1.08;;;0.88;;
20972;SDS011;10645;52.370;13.314;2023-05-07T14:07:34;3.03;;;0.80;;
20972;SDS011;10645;52.370;13.314;2023-05-07T14:10:01;3.45;;;1.38;;
20972;SDS011;10645;52.370;13.314;2023-05-07T14:12:28;1.25;;;0.95;;
20972;SDS011;10645;52.370;13.314;2023-05-07T14:14:54;1.10;;;1.10;;
20972;SDS011;10645;52.370;13.314;2023-05-07T14:17:20;1.20;;;1.10;;
20972;SDS011;10645;52.370;13.314;2023-05-07T14:19:48;0.98;;;0.98;;
20972;SDS011;10645;52.370;13.314;2023-05-07T14:22:14;0.93;;;0.93;;
20972;SDS011;10645;52.370;13.314;2023-05-07T14:24:40;0.80;;;0.80;;
20972;SDS011;10645;52.370;13.314;2023-05-07T14:27:07;0.73;;;0.73;;
20972;SDS011;10645;52.370;13.314;2023-05-07T14:29:33;3.42;;;1.23;;
20972;SDS011;10645;52.370;13.314;2023-05-07T14:32:01;1.83;;;1.10;;
20972;SDS011;10645;52.370;13.314;2023-05-07T14:34:28;1.70;;;1.10;;
20972;SDS011;10645;52.370;13.314;2023-05-07T14:36:55;1.40;;;1.30;;
20972;SDS011;10645;52.370;13.314;2023-05-07T14:39:21;1.42;;;1.20;;
20972;SDS011;10645;52.370;13.314;2023-05-07T14:41:47;2.53;;;1.38;;
20972;SDS011;10645;52.370;13.314;2023-05-07T14:44:13;1.05;;;0.90;;
20972;SDS011;10645;52.370;13.314;2023-05-07T14:46:39;0.73;;;0.73;;
20972;SDS011;10645;52.370;13.314;2023-05-07T14:49:06;0.70;;;0.70;;
20972;SDS011;10645;52.370;13.314;2023-05-07T14:51:32;0.65;;;0.65;;
20972;SDS011;10645;52.370;13.314;2023-05-07T14:53:58;1.25;;;1.20;;
20972;SDS011;10645;52.370;13.314;2023-05-07T14:56:25;2.60;;;0.95;;
20972;SDS011;10645;52.370;13.314;2023-05-07T14:58:51;0.80;;;0.80;;
20972;SDS011;10645;52.370;13.314;2023-05-07T15:01:17;0.80;;;0.80;;
20972;SDS011;10645;52.370;13.314;2023-05-07T15:03:45;1.52;;;1.42;;
20972;SDS011;10645;52.370;13.314;2023-05-07T15:06:11;1.25;;;1.15;;